sensor_id;sensor_type;location;lat;lon;timestamp;P1;durP1;ratioP1;P2;durP2;ratioP2
19111;SDS011;9688;51.906;8.376;2023-06-14T00:00:13;3.67;;;2.70;;
19111;SDS011;9688;51.906;8.376;2023-06-14T00:03:01;6.30;;;2.60;;
19111;SDS011;9688;51.906;8.376;2023-06-14T00:05:48;4.30;;;2.83;;
19111;SDS011;9688;51.906;8.376;2023-06-14T00:08:34;3.90;;;2.30;;
19111;SDS011;9688;51.906;8.376;2023-06-14T00:11:20;5.90;;;2.55;;
19111;SDS011;9688;51.906;8.376;2023-06-14T00:14:06;3.30;;;2.50;;
19111;SDS011;9688;51.906;8.376;2023-06-14T00:16:52;4.00;;;2.70;;
19111;SDS011;9688;51.906;8.376;2023-06-14T00:19:44;3.83;;;2.60;;
19111;SDS011;9688;51.906;8.376;2023-06-14T00:22:30;5.17;;;2.90;;
19111;SDS011;9688;51.906;8.376;2023-06-14T00:25:16;4.03;;;2.70;;
19111;SDS011;9688;51.906;8.376;2023-06-14T00:28:03;5.80;;;2.70;;
19111;SDS011;9688;51.906;8.376;2023-06-14T00:30:48;2.80;;;2.50;;
19111;SDS011;9688;51.906;8.376;2023-06-14T00:33:34;4.50;;;2.97;;
19111;SDS011;9688;51.906;8.376;2023-06-14T00:36:21;5.43;;;2.77;;
19111;SDS011;9688;51.906;8.376;2023-06-14T00:39:07;6.03;;;2.93;;
19111;SDS011;9688;51.906;8.376;2023-06-14T00:41:53;4.60;;;3.03;;
19111;SDS011;9688;51.906;8.376;2023-06-14T00:44:40;7.33;;;2.90;;
19111;SDS011;9688;51.906;8.376;2023-06-14T00:47:25;2.90;;;2.70;;
19111;SDS011;9688;51.906;8.376;2023-06-14T00:50:12;9.10;;;3.00;;
19111;SDS011;9688;51.906;8.376;2023-06-14T00:52:59;5.33;;;2.90;;
19111;SDS011;9688;51.906;8.376;2023-06-14T00:55:46;5.37;;;2.83;;
19111;SDS011;9688;51.906;8.376;2023-06-14T00:58:32;7.60;;;3.03;;
19111;SDS011;9688;51.906;8.376;2023-06-14T01:01:19;6.87;;;2.70;;
19111;SDS011;9688;51.906;8.376;2023-06-14T01:04:05;3.93;;;2.70;;
19111;SDS011;9688;51.906;8.376;2023-06-14T01:06:54;3.83;;;2.47;;
19111;SDS011;9688;51.906;8.376;2023-06-14T01:10:06;4.30;;;3.13;;
19111;SDS011;9688;51.906;8.376;2023-06-14T01:13:01;4.90;;;2.97;;
19111;SDS011;9688;51.906;8.376;2023-06-14T01:15:52;3.57;;;2.40;;
19111;SDS011;9688;51.906;8.376;2023-06-14T01:18:40;10.80;;;2.67;;
19111;SDS011;9688;51.906;8.376;2023-06-14T01:21:31;4.37;;;2.50;;
19111;SDS011;9688;51.906;8.376;2023-06-14T01:24:27;5.70;;;2.80;;
19111;SDS011;9688;51.906;8.376;2023-06-14T01:27:15;4.03;;;2.50;;
19111;SDS011;9688;51.906;8.376;2023-06-14T01:30:03;3.87;;;2.63;;
19111;SDS011;9688;51.906;8.376;2023-06-14T01:32:50;3.87;;;2.80;;
19111;SDS011;9688;51.906;8.376;2023-06-14T01:35:38;5.17;;;2.90;;
19111;SDS011;9688;51.906;8.376;2023-06-14T01:38:25;4.27;;;2.67;;
19111;SDS011;9688;51.906;8.376;2023-06-14T01:41:13;3.27;;;2.57;;
19111;SDS011;9688;51.906;8.376;2023-06-14T01:43:59;3.70;;;2.40;;
19111;SDS011;9688;51.906;8.376;2023-06-14T01:46:46;4.70;;;2.80;;
19111;SDS011;9688;51.906;8.376;2023-06-14T01:49:34;6.03;;;2.77;;
19111;SDS011;9688;51.906;8.376;2023-06-14T01:52:20;5.47;;;2.33;;
19111;SDS011;9688;51.906;8.376;2023-06-14T01:55:08;3.00;;;2.70;;
19111;SDS011;9688;51.906;8.376;2023-06-14T01:57:56;7.90;;;2.90;;
19111;SDS011;9688;51.906;8.376;2023-06-14T02:00:42;5.83;;;2.67;;
19111;SDS011;9688;51.906;8.376;2023-06-14T02:03:29;3.47;;;2.80;;
19111;SDS011;9688;51.906;8.376;2023-06-14T02:06:15;3.27;;;2.50;;
19111;SDS011;9688;51.906;8.376;2023-06-14T02:09:01;3.40;;;3.10;;
19111;SDS011;9688;51.906;8.376;2023-06-14T02:11:47;8.37;;;2.90;;
19111;SDS011;9688;51.906;8.376;2023-06-14T02:14:34;3.53;;;2.60;;
19111;SDS011;9688;51.906;8.376;2023-06-14T02:17:20;5.67;;;3.00;;
19111;SDS011;9688;51.906;8.376;2023-06-14T02:20:07;4.83;;;2.90;;
19111;SDS011;9688;51.906;8.376;2023-06-14T02:22:54;7.23;;;3.10;;
19111;SDS011;9688;51.906;8.376;2023-06-14T02:25:40;6.30;;;2.77;;
19111;SDS011;9688;51.906;8.376;2023-06-14T02:28:29;3.50;;;2.60;;
19111;SDS011;9688;51.906;8.376;2023-06-14T02:31:16;5.33;;;2.70;;
19111;SDS011;9688;51.906;8.376;2023-06-14T02:34:02;3.27;;;2.40;;
19111;SDS011;9688;51.906;8.376;2023-06-14T02:36:50;6.03;;;2.60;;
19111;SDS011;9688;51.906;8.376;2023-06-14T02:39:36;6.17;;;2.80;;
19111;SDS011;9688;51.906;8.376;2023-06-14T02:42:22;5.80;;;2.70;;
19111;SDS011;9688;51.906;8.376;2023-06-14T02:45:08;6.17;;;3.23;;
19111;SDS011;9688;51.906;8.376;2023-06-14T02:47:55;4.53;;;3.17;;
19111;SDS011;9688;51.906;8.376;2023-06-14T02:50:41;6.27;;;2.77;;
19111;SDS011;9688;51.906;8.376;2023-06-14T02:53:27;3.93;;;2.60;;
19111;SDS011;9688;51.906;8.376;2023-06-14T02:56:13;6.33;;;2.80;;
19111;SDS011;9688;51.906;8.376;2023-06-14T02:59:01;3.77;;;2.40;;
19111;SDS011;9688;51.906;8.376;2023-06-14T03:01:48;5.20;;;3.07;;
19111;SDS011;9688;51.906;8.376;2023-06-14T03:04:36;3.50;;;2.77;;
19111;SDS011;9688;51.906;8.376;2023-06-14T03:07:22;6.43;;;3.07;;
19111;SDS011;9688;51.906;8.376;2023-06-14T03:10:09;4.87;;;2.60;;
19111;SDS011;9688;51.906;8.376;2023-06-14T03:12:57;6.47;;;2.53;;
19111;SDS011;9688;51.906;8.376;2023-06-14T03:15:43;4.77;;;2.70;;
19111;SDS011;9688;51.906;8.376;2023-06-14T03:18:29;2.93;;;2.60;;
19111;SDS011;9688;51.906;8.376;2023-06-14T03:21:20;3.03;;;2.77;;
19111;SDS011;9688;51.906;8.376;2023-06-14T03:24:07;3.60;;;2.70;;
19111;SDS011;9688;51.906;8.376;2023-06-14T03:26:53;4.87;;;2.83;;
19111;SDS011;9688;51.906;8.376;2023-06-14T03:29:41;4.13;;;2.43;;
19111;SDS011;9688;51.906;8.376;2023-06-14T03:32:28;5.23;;;2.83;;
19111;SDS011;9688;51.906;8.376;2023-06-14T03:35:18;3.67;;;2.50;;
19111;SDS011;9688;51.906;8.376;2023-06-14T03:38:06;4.53;;;2.50;;
19111;SDS011;9688;51.906;8.376;2023-06-14T03:40:51;3.10;;;2.53;;
19111;SDS011;9688;51.906;8.376;2023-06-14T03:43:37;7.23;;;2.80;;
19111;SDS011;9688;51.906;8.376;2023-06-14T03:46:23;6.03;;;2.77;;
19111;SDS011;9688;51.906;8.376;2023-06-14T03:49:09;6.67;;;3.03;;
19111;SDS011;9688;51.906;8.376;2023-06-14T03:51:56;8.83;;;2.83;;
19111;SDS011;9688;51.906;8.376;2023-06-14T03:54:43;6.17;;;2.80;;
19111;SDS011;9688;51.906;8.376;2023-06-14T03:57:30;3.23;;;2.60;;
19111;SDS011;9688;51.906;8.376;2023-06-14T04:00:16;3.50;;;2.47;;
19111;SDS011;9688;51.906;8.376;2023-06-14T04:03:02;3.63;;;2.67;;
19111;SDS011;9688;51.906;8.376;2023-06-14T04:05:49;4.90;;;2.63;;
19111;SDS011;9688;51.906;8.376;2023-06-14T04:08:35;2.90;;;2.50;;
19111;SDS011;9688;51.906;8.376;2023-06-14T04:11:25;3.30;;;2.43;;
19111;SDS011;9688;51.906;8.376;2023-06-14T04:14:11;2.77;;;2.50;;
19111;SDS011;9688;51.906;8.376;2023-06-14T04:16:57;3.83;;;3.03;;
19111;SDS011;9688;51.906;8.376;2023-06-14T04:19:42;8.60;;;2.50;;
19111;SDS011;9688;51.906;8.376;2023-06-14T04:22:28;3.20;;;2.40;;
19111;SDS011;9688;51.906;8.376;2023-06-14T04:25:15;3.43;;;2.60;;
19111;SDS011;9688;51.906;8.376;2023-06-14T04:28:03;3.60;;;2.47;;
19111;SDS011;9688;51.906;8.376;2023-06-14T04:30:49;5.37;;;2.40;;
19111;SDS011;9688;51.906;8.376;2023-06-14T04:33:37;14.50;;;2.90;;
19111;SDS011;9688;51.906;8.376;2023-06-14T04:36:27;3.90;;;2.20;;
19111;SDS011;9688;51.906;8.376;2023-06-14T04:39:13;3.50;;;2.50;;
19111;SDS011;9688;51.906;8.376;2023-06-14T04:41:59;5.70;;;2.57;;
19111;SDS011;9688;51.906;8.376;2023-06-14T04:44:49;3.70;;;2.00;;
19111;SDS011;9688;51.906;8.376;2023-06-14T04:47:35;4.10;;;2.60;;
19111;SDS011;9688;51.906;8.376;2023-06-14T04:50:21;3.77;;;2.70;;
19111;SDS011;9688;51.906;8.376;2023-06-14T04:53:08;3.23;;;2.43;;
19111;SDS011;9688;51.906;8.376;2023-06-14T04:55:55;5.77;;;2.37;;
19111;SDS011;9688;51.906;8.376;2023-06-14T04:58:41;7.83;;;2.40;;
19111;SDS011;9688;51.906;8.376;2023-06-14T05:01:29;2.33;;;2.23;;
19111;SDS011;9688;51.906;8.376;2023-06-14T05:04:17;4.23;;;2.43;;
19111;SDS011;9688;51.906;8.376;2023-06-14T05:07:06;4.27;;;2.30;;
19111;SDS011;9688;51.906;8.376;2023-06-14T05:09:55;4.80;;;2.37;;
19111;SDS011;9688;51.906;8.376;2023-06-14T05:12:41;4.00;;;2.53;;
19111;SDS011;9688;51.906;8.376;2023-06-14T05:15:27;2.87;;;2.23;;
19111;SDS011;9688;51.906;8.376;2023-06-14T05:18:15;5.63;;;2.50;;
19111;SDS011;9688;51.906;8.376;2023-06-14T05:21:01;4.10;;;2.60;;
19111;SDS011;9688;51.906;8.376;2023-06-14T05:23:48;7.70;;;2.60;;
19111;SDS011;9688;51.906;8.376;2023-06-14T05:26:34;5.57;;;2.30;;
19111;SDS011;9688;51.906;8.376;2023-06-14T05:29:23;4.40;;;2.50;;
19111;SDS011;9688;51.906;8.376;2023-06-14T05:32:10;5.17;;;2.20;;
19111;SDS011;9688;51.906;8.376;2023-06-14T05:34:57;3.37;;;2.50;;
19111;SDS011;9688;51.906;8.376;2023-06-14T05:37:43;3.57;;;2.30;;
19111;SDS011;9688;51.906;8.376;2023-06-14T05:40:30;6.67;;;2.60;;
19111;SDS011;9688;51.906;8.376;2023-06-14T05:43:17;5.80;;;2.53;;
19111;SDS011;9688;51.906;8.376;2023-06-14T05:46:04;2.50;;;2.30;;
19111;SDS011;9688;51.906;8.376;2023-06-14T05:48:56;4.43;;;2.13;;
19111;SDS011;9688;51.906;8.376;2023-06-14T05:51:45;4.97;;;2.37;;
19111;SDS011;9688;51.906;8.376;2023-06-14T05:54:30;3.73;;;2.33;;
19111;SDS011;9688;51.906;8.376;2023-06-14T05:57:16;2.03;;;1.93;;
19111;SDS011;9688;51.906;8.376;2023-06-14T06:00:10;2.47;;;2.17;;
19111;SDS011;9688;51.906;8.376;2023-06-14T06:02:59;2.57;;;1.80;;
19111;SDS011;9688;51.906;8.376;2023-06-14T06:05:48;5.13;;;2.20;;
19111;SDS011;9688;51.906;8.376;2023-06-14T06:08:36;2.10;;;1.93;;
19111;SDS011;9688;51.906;8.376;2023-06-14T06:11:23;2.60;;;2.10;;
19111;SDS011;9688;51.906;8.376;2023-06-14T06:14:10;5.13;;;2.00;;
19111;SDS011;9688;51.906;8.376;2023-06-14T06:16:58;2.73;;;2.10;;
19111;SDS011;9688;51.906;8.376;2023-06-14T06:19:47;2.43;;;2.00;;
19111;SDS011;9688;51.906;8.376;2023-06-14T06:22:34;2.73;;;1.70;;
19111;SDS011;9688;51.906;8.376;2023-06-14T06:25:23;3.37;;;1.70;;
19111;SDS011;9688;51.906;8.376;2023-06-14T06:28:13;4.37;;;1.57;;
19111;SDS011;9688;51.906;8.376;2023-06-14T06:31:00;4.00;;;1.77;;
19111;SDS011;9688;51.906;8.376;2023-06-14T06:33:46;1.50;;;1.50;;
19111;SDS011;9688;51.906;8.376;2023-06-14T06:36:32;1.83;;;1.73;;
19111;SDS011;9688;51.906;8.376;2023-06-14T06:39:19;1.70;;;1.60;;
19111;SDS011;9688;51.906;8.376;2023-06-14T06:42:08;1.50;;;1.40;;
19111;SDS011;9688;51.906;8.376;2023-06-14T06:44:54;1.30;;;1.30;;
19111;SDS011;9688;51.906;8.376;2023-06-14T06:47:42;1.43;;;1.33;;
19111;SDS011;9688;51.906;8.376;2023-06-14T06:50:28;1.90;;;1.73;;
19111;SDS011;9688;51.906;8.376;2023-06-14T06:53:15;2.60;;;1.40;;
19111;SDS011;9688;51.906;8.376;2023-06-14T06:56:07;1.97;;;1.37;;
19111;SDS011;9688;51.906;8.376;2023-06-14T06:58:54;6.23;;;1.60;;
19111;SDS011;9688;51.906;8.376;2023-06-14T07:01:44;2.00;;;1.23;;
19111;SDS011;9688;51.906;8.376;2023-06-14T07:04:35;1.57;;;1.40;;
19111;SDS011;9688;51.906;8.376;2023-06-14T07:07:21;5.03;;;1.60;;
19111;SDS011;9688;51.906;8.376;2023-06-14T07:10:10;4.03;;;1.57;;
19111;SDS011;9688;51.906;8.376;2023-06-14T07:13:04;2.70;;;1.30;;
19111;SDS011;9688;51.906;8.376;2023-06-14T07:15:54;1.90;;;1.27;;
19111;SDS011;9688;51.906;8.376;2023-06-14T07:18:45;1.63;;;1.33;;
19111;SDS011;9688;51.906;8.376;2023-06-14T07:21:31;2.97;;;1.70;;
19111;SDS011;9688;51.906;8.376;2023-06-14T07:24:36;3.43;;;1.47;;
19111;SDS011;9688;51.906;8.376;2023-06-14T07:27:44;3.57;;;1.77;;
19111;SDS011;9688;51.906;8.376;2023-06-14T07:30:49;1.63;;;1.57;;
19111;SDS011;9688;51.906;8.376;2023-06-14T07:33:37;3.60;;;1.73;;
19111;SDS011;9688;51.906;8.376;2023-06-14T07:36:27;1.73;;;1.13;;
19111;SDS011;9688;51.906;8.376;2023-06-14T07:39:13;2.90;;;1.90;;
19111;SDS011;9688;51.906;8.376;2023-06-14T07:41:59;1.80;;;1.70;;
19111;SDS011;9688;51.906;8.376;2023-06-14T07:44:48;1.50;;;1.50;;
19111;SDS011;9688;51.906;8.376;2023-06-14T07:47:39;3.07;;;1.90;;
19111;SDS011;9688;51.906;8.376;2023-06-14T07:50:46;2.00;;;1.40;;
19111;SDS011;9688;51.906;8.376;2023-06-14T07:53:32;5.47;;;1.70;;
19111;SDS011;9688;51.906;8.376;2023-06-14T07:56:18;1.90;;;1.80;;
19111;SDS011;9688;51.906;8.376;2023-06-14T07:59:23;2.20;;;1.43;;
19111;SDS011;9688;51.906;8.376;2023-06-14T08:02:09;1.90;;;1.60;;
19111;SDS011;9688;51.906;8.376;2023-06-14T08:04:55;3.60;;;1.50;;
19111;SDS011;9688;51.906;8.376;2023-06-14T08:07:47;3.90;;;1.50;;
19111;SDS011;9688;51.906;8.376;2023-06-14T08:10:33;2.23;;;1.40;;
19111;SDS011;9688;51.906;8.376;2023-06-14T08:13:20;3.80;;;1.60;;
19111;SDS011;9688;51.906;8.376;2023-06-14T08:16:06;2.33;;;1.40;;
19111;SDS011;9688;51.906;8.376;2023-06-14T08:19:10;2.57;;;2.10;;
19111;SDS011;9688;51.906;8.376;2023-06-14T08:21:58;1.97;;;1.20;;
19111;SDS011;9688;51.906;8.376;2023-06-14T08:25:05;2.20;;;1.53;;
19111;SDS011;9688;51.906;8.376;2023-06-14T08:27:52;4.33;;;1.20;;
19111;SDS011;9688;51.906;8.376;2023-06-14T08:30:39;2.23;;;1.30;;
19111;SDS011;9688;51.906;8.376;2023-06-14T08:33:25;4.27;;;1.83;;
19111;SDS011;9688;51.906;8.376;2023-06-14T08:36:11;2.90;;;1.60;;
19111;SDS011;9688;51.906;8.376;2023-06-14T08:39:16;1.80;;;1.70;;
19111;SDS011;9688;51.906;8.376;2023-06-14T08:42:22;4.15;;;1.13;;
19111;SDS011;9688;51.906;8.376;2023-06-14T08:45:10;2.20;;;1.43;;
19111;SDS011;9688;51.906;8.376;2023-06-14T08:48:01;1.53;;;1.40;;
19111;SDS011;9688;51.906;8.376;2023-06-14T08:50:51;1.93;;;1.60;;
19111;SDS011;9688;51.906;8.376;2023-06-14T08:53:45;2.40;;;1.40;;
19111;SDS011;9688;51.906;8.376;2023-06-14T08:56:37;2.33;;;1.47;;
19111;SDS011;9688;51.906;8.376;2023-06-14T08:59:27;1.33;;;1.23;;
19111;SDS011;9688;51.906;8.376;2023-06-14T09:02:15;4.88;;;1.63;;
19111;SDS011;9688;51.906;8.376;2023-06-14T09:05:04;2.45;;;1.50;;
19111;SDS011;9688;51.906;8.376;2023-06-14T09:07:52;1.60;;;1.50;;
19111;SDS011;9688;51.906;8.376;2023-06-14T09:10:40;2.88;;;1.50;;
19111;SDS011;9688;51.906;8.376;2023-06-14T09:13:38;2.67;;;1.77;;
19111;SDS011;9688;51.906;8.376;2023-06-14T09:16:26;3.45;;;2.05;;
19111;SDS011;9688;51.906;8.376;2023-06-14T09:19:21;4.43;;;1.90;;
19111;SDS011;9688;51.906;8.376;2023-06-14T09:22:07;2.20;;;1.45;;
19111;SDS011;9688;51.906;8.376;2023-06-14T09:24:55;3.65;;;1.75;;
19111;SDS011;9688;51.906;8.376;2023-06-14T09:27:42;3.80;;;1.70;;
19111;SDS011;9688;51.906;8.376;2023-06-14T09:30:28;3.13;;;1.60;;
19111;SDS011;9688;51.906;8.376;2023-06-14T09:33:18;4.82;;;1.50;;
19111;SDS011;9688;51.906;8.376;2023-06-14T09:36:04;3.35;;;1.83;;
19111;SDS011;9688;51.906;8.376;2023-06-14T09:39:02;4.30;;;1.67;;
19111;SDS011;9688;51.906;8.376;2023-06-14T09:41:59;2.03;;;1.67;;
19111;SDS011;9688;51.906;8.376;2023-06-14T09:44:45;2.90;;;1.80;;
19111;SDS011;9688;51.906;8.376;2023-06-14T09:47:36;3.03;;;2.08;;
19111;SDS011;9688;51.906;8.376;2023-06-14T09:50:25;4.80;;;1.73;;
19111;SDS011;9688;51.906;8.376;2023-06-14T09:53:30;2.95;;;2.35;;
19111;SDS011;9688;51.906;8.376;2023-06-14T09:56:22;2.00;;;1.90;;
19111;SDS011;9688;51.906;8.376;2023-06-14T09:59:18;5.10;;;2.13;;
19111;SDS011;9688;51.906;8.376;2023-06-14T10:02:17;3.10;;;1.92;;
19111;SDS011;9688;51.906;8.376;2023-06-14T10:05:08;3.05;;;1.77;;
19111;SDS011;9688;51.906;8.376;2023-06-14T10:08:17;3.92;;;1.90;;
19111;SDS011;9688;51.906;8.376;2023-06-14T10:11:05;2.15;;;1.77;;
19111;SDS011;9688;51.906;8.376;2023-06-14T10:14:11;1.77;;;1.52;;
19111;SDS011;9688;51.906;8.376;2023-06-14T10:17:02;2.13;;;1.80;;
19111;SDS011;9688;51.906;8.376;2023-06-14T10:20:17;2.60;;;2.08;;
19111;SDS011;9688;51.906;8.376;2023-06-14T10:23:13;2.15;;;1.80;;
19111;SDS011;9688;51.906;8.376;2023-06-14T10:26:05;2.08;;;1.92;;
19111;SDS011;9688;51.906;8.376;2023-06-14T10:29:00;2.45;;;1.80;;
19111;SDS011;9688;51.906;8.376;2023-06-14T10:35:51;3.90;;;1.90;;
19111;SDS011;9688;51.906;8.376;2023-06-14T10:39:01;6.00;;;3.05;;
19111;SDS011;9688;51.906;8.376;2023-06-14T10:45:04;3.83;;;2.47;;
19111;SDS011;9688;51.906;8.376;2023-06-14T10:48:12;2.17;;;1.98;;
19111;SDS011;9688;51.906;8.376;2023-06-14T10:51:19;2.38;;;2.08;;
19111;SDS011;9688;51.906;8.376;2023-06-14T10:54:09;2.58;;;2.10;;
19111;SDS011;9688;51.906;8.376;2023-06-14T10:56:58;2.72;;;1.70;;
19111;SDS011;9688;51.906;8.376;2023-06-14T10:59:44;2.20;;;2.10;;
19111;SDS011;9688;51.906;8.376;2023-06-14T11:06:00;2.70;;;2.50;;
19111;SDS011;9688;51.906;8.376;2023-06-14T11:12:30;3.95;;;2.50;;
19111;SDS011;9688;51.906;8.376;2023-06-14T11:15:19;2.63;;;2.22;;
19111;SDS011;9688;51.906;8.376;2023-06-14T11:18:05;3.08;;;2.30;;
19111;SDS011;9688;51.906;8.376;2023-06-14T11:20:54;3.17;;;2.05;;
19111;SDS011;9688;51.906;8.376;2023-06-14T11:23:40;2.65;;;2.38;;
19111;SDS011;9688;51.906;8.376;2023-06-14T11:26:29;3.35;;;2.10;;
19111;SDS011;9688;51.906;8.376;2023-06-14T11:29:21;2.40;;;2.20;;
19111;SDS011;9688;51.906;8.376;2023-06-14T11:32:07;3.97;;;2.35;;
19111;SDS011;9688;51.906;8.376;2023-06-14T11:34:57;2.72;;;2.50;;
19111;SDS011;9688;51.906;8.376;2023-06-14T11:37:44;2.65;;;2.08;;
19111;SDS011;9688;51.906;8.376;2023-06-14T11:40:34;2.85;;;2.10;;
19111;SDS011;9688;51.906;8.376;2023-06-14T11:43:20;4.65;;;2.08;;
19111;SDS011;9688;51.906;8.376;2023-06-14T11:46:13;3.58;;;2.35;;
19111;SDS011;9688;51.906;8.376;2023-06-14T11:49:02;2.38;;;2.00;;
19111;SDS011;9688;51.906;8.376;2023-06-14T11:51:50;1.90;;;1.70;;
19111;SDS011;9688;51.906;8.376;2023-06-14T11:54:39;2.38;;;2.00;;
19111;SDS011;9688;51.906;8.376;2023-06-14T11:57:26;2.67;;;1.92;;
19111;SDS011;9688;51.906;8.376;2023-06-14T12:00:19;8.68;;;1.95;;
19111;SDS011;9688;51.906;8.376;2023-06-14T12:03:07;2.13;;;1.92;;
19111;SDS011;9688;51.906;8.376;2023-06-14T12:06:12;4.28;;;2.10;;
19111;SDS011;9688;51.906;8.376;2023-06-14T12:08:58;2.05;;;1.80;;
19111;SDS011;9688;51.906;8.376;2023-06-14T12:12:04;2.67;;;1.75;;
19111;SDS011;9688;51.906;8.376;2023-06-14T12:14:55;2.85;;;1.88;;
19111;SDS011;9688;51.906;8.376;2023-06-14T12:17:43;1.92;;;1.83;;
19111;SDS011;9688;51.906;8.376;2023-06-14T12:20:31;3.80;;;1.90;;
19111;SDS011;9688;51.906;8.376;2023-06-14T12:23:18;2.25;;;1.60;;
19111;SDS011;9688;51.906;8.376;2023-06-14T12:26:05;3.22;;;1.80;;
19111;SDS011;9688;51.906;8.376;2023-06-14T12:28:56;2.95;;;1.88;;
19111;SDS011;9688;51.906;8.376;2023-06-14T12:31:43;4.10;;;2.17;;
19111;SDS011;9688;51.906;8.376;2023-06-14T12:34:37;2.35;;;2.00;;
19111;SDS011;9688;51.906;8.376;2023-06-14T12:37:25;2.42;;;1.55;;
19111;SDS011;9688;51.906;8.376;2023-06-14T12:40:11;2.55;;;2.00;;
19111;SDS011;9688;51.906;8.376;2023-06-14T12:42:57;2.00;;;1.80;;
19111;SDS011;9688;51.906;8.376;2023-06-14T12:45:44;8.15;;;1.80;;
19111;SDS011;9688;51.906;8.376;2023-06-14T12:48:30;5.13;;;2.03;;
19111;SDS011;9688;51.906;8.376;2023-06-14T12:51:18;2.83;;;1.80;;
19111;SDS011;9688;51.906;8.376;2023-06-14T12:54:06;1.50;;;1.50;;
19111;SDS011;9688;51.906;8.376;2023-06-14T12:56:53;4.38;;;1.90;;
19111;SDS011;9688;51.906;8.376;2023-06-14T12:59:39;1.75;;;1.63;;
19111;SDS011;9688;51.906;8.376;2023-06-14T13:02:25;6.68;;;1.83;;
19111;SDS011;9688;51.906;8.376;2023-06-14T13:05:11;2.45;;;1.95;;
19111;SDS011;9688;51.906;8.376;2023-06-14T13:07:57;3.85;;;1.80;;
19111;SDS011;9688;51.906;8.376;2023-06-14T13:10:45;6.78;;;2.15;;
19111;SDS011;9688;51.906;8.376;2023-06-14T13:13:35;4.45;;;2.13;;
19111;SDS011;9688;51.906;8.376;2023-06-14T13:16:24;3.72;;;1.98;;
19111;SDS011;9688;51.906;8.376;2023-06-14T13:19:13;2.05;;;1.90;;
19111;SDS011;9688;51.906;8.376;2023-06-14T13:21:59;3.60;;;2.20;;
19111;SDS011;9688;51.906;8.376;2023-06-14T13:24:46;3.50;;;2.05;;
19111;SDS011;9688;51.906;8.376;2023-06-14T13:27:34;2.20;;;2.00;;
19111;SDS011;9688;51.906;8.376;2023-06-14T13:30:22;2.47;;;1.83;;
19111;SDS011;9688;51.906;8.376;2023-06-14T13:33:10;3.40;;;2.00;;
19111;SDS011;9688;51.906;8.376;2023-06-14T13:35:56;2.03;;;1.80;;
19111;SDS011;9688;51.906;8.376;2023-06-14T13:38:42;1.90;;;1.80;;
19111;SDS011;9688;51.906;8.376;2023-06-14T13:41:28;2.00;;;1.75;;
19111;SDS011;9688;51.906;8.376;2023-06-14T13:44:25;3.72;;;2.05;;
19111;SDS011;9688;51.906;8.376;2023-06-14T13:47:13;3.00;;;2.10;;
19111;SDS011;9688;51.906;8.376;2023-06-14T13:49:59;2.03;;;1.92;;
19111;SDS011;9688;51.906;8.376;2023-06-14T13:52:47;1.80;;;1.70;;
19111;SDS011;9688;51.906;8.376;2023-06-14T13:55:41;2.00;;;1.90;;
19111;SDS011;9688;51.906;8.376;2023-06-14T13:58:27;2.75;;;1.85;;
19111;SDS011;9688;51.906;8.376;2023-06-14T14:01:15;2.67;;;1.77;;
19111;SDS011;9688;51.906;8.376;2023-06-14T14:04:02;1.98;;;1.77;;
19111;SDS011;9688;51.906;8.376;2023-06-14T14:06:49;1.60;;;1.50;;
19111;SDS011;9688;51.906;8.376;2023-06-14T14:09:42;2.20;;;1.60;;
19111;SDS011;9688;51.906;8.376;2023-06-14T14:12:51;1.52;;;1.42;;
19111;SDS011;9688;51.906;8.376;2023-06-14T14:15:41;1.63;;;1.52;;
19111;SDS011;9688;51.906;8.376;2023-06-14T14:18:39;1.70;;;1.60;;
19111;SDS011;9688;51.906;8.376;2023-06-14T14:21:28;1.65;;;1.60;;
19111;SDS011;9688;51.906;8.376;2023-06-14T14:24:20;2.15;;;2.05;;
19111;SDS011;9688;51.906;8.376;2023-06-14T14:27:06;2.88;;;2.00;;
19111;SDS011;9688;51.906;8.376;2023-06-14T14:29:52;2.35;;;1.67;;
19111;SDS011;9688;51.906;8.376;2023-06-14T14:32:39;3.65;;;1.42;;
19111;SDS011;9688;51.906;8.376;2023-06-14T14:35:29;1.70;;;1.60;;
19111;SDS011;9688;51.906;8.376;2023-06-14T14:38:17;2.72;;;1.90;;
19111;SDS011;9688;51.906;8.376;2023-06-14T14:41:03;4.70;;;1.63;;
19111;SDS011;9688;51.906;8.376;2023-06-14T14:43:50;1.52;;;1.42;;
19111;SDS011;9688;51.906;8.376;2023-06-14T14:46:36;3.25;;;1.80;;
19111;SDS011;9688;51.906;8.376;2023-06-14T14:49:23;2.58;;;1.85;;
19111;SDS011;9688;51.906;8.376;2023-06-14T14:52:10;1.70;;;1.60;;
19111;SDS011;9688;51.906;8.376;2023-06-14T14:54:58;2.40;;;1.60;;
19111;SDS011;9688;51.906;8.376;2023-06-14T14:57:48;2.08;;;1.98;;
19111;SDS011;9688;51.906;8.376;2023-06-14T15:00:34;4.47;;;1.50;;
19111;SDS011;9688;51.906;8.376;2023-06-14T15:03:20;3.85;;;2.50;;
19111;SDS011;9688;51.906;8.376;2023-06-14T15:06:07;2.00;;;1.90;;
19111;SDS011;9688;51.906;8.376;2023-06-14T15:08:54;2.28;;;1.60;;
19111;SDS011;9688;51.906;8.376;2023-06-14T15:11:42;4.82;;;2.00;;
19111;SDS011;9688;51.906;8.376;2023-06-14T15:14:30;3.05;;;1.80;;
19111;SDS011;9688;51.906;8.376;2023-06-14T15:17:17;2.70;;;1.67;;
19111;SDS011;9688;51.906;8.376;2023-06-14T15:20:03;2.35;;;2.10;;
19111;SDS011;9688;51.906;8.376;2023-06-14T15:22:51;2.80;;;1.85;;
19111;SDS011;9688;51.906;8.376;2023-06-14T15:25:41;2.22;;;2.00;;
19111;SDS011;9688;51.906;8.376;2023-06-14T15:28:29;2.35;;;2.15;;
19111;SDS011;9688;51.906;8.376;2023-06-14T15:31:16;4.82;;;2.20;;
19111;SDS011;9688;51.906;8.376;2023-06-14T15:34:04;5.18;;;2.17;;
19111;SDS011;9688;51.906;8.376;2023-06-14T15:36:54;2.97;;;2.38;;
19111;SDS011;9688;51.906;8.376;2023-06-14T15:39:43;5.22;;;2.15;;
19111;SDS011;9688;51.906;8.376;2023-06-14T15:42:30;2.25;;;2.15;;
19111;SDS011;9688;51.906;8.376;2023-06-14T15:45:22;5.97;;;2.28;;
19111;SDS011;9688;51.906;8.376;2023-06-14T15:48:08;2.20;;;2.10;;
19111;SDS011;9688;51.906;8.376;2023-06-14T15:50:56;4.00;;;1.80;;
19111;SDS011;9688;51.906;8.376;2023-06-14T15:53:42;2.10;;;2.00;;
19111;SDS011;9688;51.906;8.376;2023-06-14T15:56:28;2.97;;;2.08;;
19111;SDS011;9688;51.906;8.376;2023-06-14T15:59:16;1.88;;;1.77;;
19111;SDS011;9688;51.906;8.376;2023-06-14T16:02:11;3.90;;;2.20;;
19111;SDS011;9688;51.906;8.376;2023-06-14T16:04:57;2.60;;;2.40;;
19111;SDS011;9688;51.906;8.376;2023-06-14T16:07:43;4.43;;;2.30;;
19111;SDS011;9688;51.906;8.376;2023-06-14T16:10:29;4.38;;;2.47;;
19111;SDS011;9688;51.906;8.376;2023-06-14T16:13:15;3.10;;;2.28;;
19111;SDS011;9688;51.906;8.376;2023-06-14T16:16:07;3.10;;;2.80;;
19111;SDS011;9688;51.906;8.376;2023-06-14T16:19:00;3.65;;;2.53;;
19111;SDS011;9688;51.906;8.376;2023-06-14T16:21:47;3.95;;;2.30;;
19111;SDS011;9688;51.906;8.376;2023-06-14T16:24:32;4.53;;;3.00;;
19111;SDS011;9688;51.906;8.376;2023-06-14T16:27:19;4.47;;;3.20;;
19111;SDS011;9688;51.906;8.376;2023-06-14T16:30:05;4.47;;;3.30;;
19111;SDS011;9688;51.906;8.376;2023-06-14T16:32:54;5.97;;;2.60;;
19111;SDS011;9688;51.906;8.376;2023-06-14T16:35:42;3.97;;;3.25;;
19111;SDS011;9688;51.906;8.376;2023-06-14T16:38:28;3.58;;;2.50;;
19111;SDS011;9688;51.906;8.376;2023-06-14T16:41:14;2.88;;;2.58;;
19111;SDS011;9688;51.906;8.376;2023-06-14T16:44:00;4.28;;;2.60;;
19111;SDS011;9688;51.906;8.376;2023-06-14T16:46:48;3.50;;;2.90;;
19111;SDS011;9688;51.906;8.376;2023-06-14T16:49:35;5.43;;;2.83;;
19111;SDS011;9688;51.906;8.376;2023-06-14T16:52:24;2.72;;;2.53;;
19111;SDS011;9688;51.906;8.376;2023-06-14T16:55:11;4.78;;;2.42;;
19111;SDS011;9688;51.906;8.376;2023-06-14T16:57:58;4.80;;;2.80;;
19111;SDS011;9688;51.906;8.376;2023-06-14T17:00:46;3.80;;;2.90;;
19111;SDS011;9688;51.906;8.376;2023-06-14T17:03:32;3.50;;;2.67;;
19111;SDS011;9688;51.906;8.376;2023-06-14T17:06:21;5.10;;;2.88;;
19111;SDS011;9688;51.906;8.376;2023-06-14T17:09:08;3.67;;;2.78;;
19111;SDS011;9688;51.906;8.376;2023-06-14T17:11:54;7.75;;;2.67;;
19111;SDS011;9688;51.906;8.376;2023-06-14T17:14:40;3.97;;;2.45;;
19111;SDS011;9688;51.906;8.376;2023-06-14T17:17:27;3.95;;;2.58;;
19111;SDS011;9688;51.906;8.376;2023-06-14T17:20:13;2.63;;;2.50;;
19111;SDS011;9688;51.906;8.376;2023-06-14T17:23:03;2.97;;;2.58;;
19111;SDS011;9688;51.906;8.376;2023-06-14T17:25:50;4.45;;;2.50;;